Historique des mesures à Cassis (13260), France
Quotidien Résumé Juin 28, 2021 Unités:  Métrique    US   Métrique/US
Quotidien Hebdomadaire Mensuel Annuel
  Maximum: Minimum: Moyenne:
Température: 29.4 °C 17.5 °C 22.9 °C
Point de rosée: 16.2 °C 9.3 °C 12.1 °C
Humidité: 60% 42% 51%
Vitesse du vent: 33.5km/h 0km/h 9.5km/h
Rafales: 33.5km/h - -
Vent- - SW
Pression: 1008.7 hPa 1006.2 hPa -
Précipitations: 0.0 mm    
Historical Graphs
 
 
Mesures pour : Juin 28, 2021
Heure Temperature Point de rosée Pression Vent Vitesse du vent Rafales Humidité Pluie (par heure)
00:11 20.3 °C 9.8 °C 1007.0 hPa NW 32.4 km/h 33.1 km/h 51% 0.0 mm
01:11 19.8 °C 9.9 °C 1007.3 hPa WNW 16.9 km/h 21.6 km/h 53% 0.0 mm
02:11 19.4 °C 9.8 °C 1007.2 hPa NW 27.4 km/h 29.5 km/h 54% 0.0 mm
03:11 18.8 °C 9.6 °C 1007.1 hPa Calm   9 km/h 55% 0.0 mm
04:11 18.2 °C 9.8 °C 1006.9 hPa WNW 18 km/h 24.1 km/h 58% 0.0 mm
05:11 17.7 °C 9.3 °C 1006.6 hPa NNE 7.9 km/h 9.7 km/h 58% 0.0 mm
06:11 17.5 °C 9.4 °C 1006.2 hPa North 4.7 km/h 12.2 km/h 59% 0.0 mm
07:11 17.5 °C 9.7 °C 1006.4 hPa NW 33.5 km/h 33.5 km/h 60% 0.0 mm
08:11 22.8 °C 11.8 °C 1006.5 hPa Calm   5 km/h 50% 0.0 mm
09:11 22.6 °C 10.3 °C 1006.4 hPa WNW 2.9 km/h 14.8 km/h 46% 0.0 mm
10:11 21.5 °C 10.3 °C 1006.5 hPa WSW 17.6 km/h 23 km/h 49% 0.0 mm
11:11 24.2 °C 11.1 °C 1006.8 hPa WNW 8.6 km/h 28.8 km/h 44% 0.0 mm
12:11 26 °C 12.1 °C 1007.1 hPa SW 16.6 km/h 16.9 km/h 42% 0.0 mm
13:11 26.8 °C 13.8 °C 1007.5 hPa SW 3.2 km/h 14 km/h 45% 0.0 mm
14:11 29.4 °C 15.5 °C 1008.0 hPa SSW 5.4 km/h 15.8 km/h 43% 0.0 mm
15:11 28.9 °C 15.8 °C 1008.2 hPa South 10.8 km/h 11.2 km/h 45% 0.0 mm
16:11 27.8 °C 15.7 °C 1008.1 hPa Calm   7.6 km/h 48% 0.0 mm
17:11 27.6 °C 16.2 °C 1008.0 hPa SSE 4 km/h 9.7 km/h 50% 0.0 mm
18:11 27.3 °C 15.6 °C 1008.2 hPa ESE 4 km/h 9.7 km/h 49% 0.0 mm
19:11 26.5 °C 15.3 °C 1008.1 hPa Calm   4.3 km/h 50% 0.0 mm
20:11 24.5 °C 14.3 °C 1008.2 hPa Calm     53% 0.0 mm
21:11 22.5 °C 13 °C 1008.7 hPa Calm   5 km/h 55% 0.0 mm
22:11 21.4 °C 10.8 °C 1008.6 hPa WNW 6.5 km/h 16.6 km/h 51% 0.0 mm
23:11 20.5 °C 10.3 °C 1008.5 hPa WNW 7.9 km/h 19.1 km/h 52% 0.0 mm
Observations météo à CASSIS
WU-History script by Weather Underground - 2 mb